Time;durP1;ratioP1;P1;durP2;ratioP2;P2;SDS_P1;SDS_P2;PMS_P1;PMS_P2;Temp;Humidity;BMP_temperature;BMP_pressure;BME280_temperature;BME280_humidity;BME280_pressure;Samples;Min_cycle;Max_cycle;Signal;HPM_P1;HPM_P2
2022/01/02 00:01:51;;;;;;;;;;;;;;;8.93;100.00;101333.88;5011568;28;1018;-78
2022/01/02 00:04:18;;;;;;;;;;;;;;;8.93;100.00;101333.03;5011375;28;801;-76
2022/01/02 00:06:49;;;;;;;;;;;;;;;8.93;100.00;101333.03;5011321;28;1985;-75
2022/01/02 00:09:20;;;;;;;;;;;;;;;8.93;100.00;101312.22;5011462;28;497;-78
2022/01/02 00:11:47;;;;;;;;;;;;;;;8.93;100.00;101303.25;5011370;28;903;-76
2022/01/02 00:14:15;;;;;;;;;;;;;;;8.91;100.00;101318.72;5011116;28;1007;-80
2022/01/02 00:16:43;;;;;;;;;;;;;;;8.94;100.00;101315.78;5010949;28;1031;-77
2022/01/02 00:19:19;;;;;;;;;;;;;;;8.95;100.00;101309.41;5011209;28;995;-77
2022/01/02 00:21:47;;;;;;;;;;;;;;;8.94;100.00;101300.44;5011164;28;1041;-79
2022/01/02 00:24:18;;;;;;;;;;;;;;;8.92;100.00;101301.50;5011037;28;999;-77
2022/01/02 00:26:46;;;;;;;;;;;;;;;8.91;100.00;101302.47;5010921;28;1910;-77
2022/01/02 00:29:13;;;;;;;;;;;;;;;8.88;100.00;101287.28;5010963;28;994;-76
2022/01/02 00:31:40;;;;;;;;;;;;;;;8.80;100.00;101287.78;5009763;28;1337;-77
2022/01/02 00:34:08;;;;;;;;;;;;;;;8.77;100.00;101287.97;5010013;28;856;-76
2022/01/02 00:36:35;;;;;;;;;;;;;;;8.71;100.00;101283.84;5009609;28;1149;-75
2022/01/02 00:39:01;;;;;;;;;;;;;;;8.68;100.00;101277.75;5011339;28;776;-77
2022/01/02 00:41:32;;;;;;;;;;;;;;;8.59;100.00;101260.28;5011114;28;1287;-77
2022/01/02 00:44:01;;;;;;;;;;;;;;;8.51;100.00;101259.88;5010042;28;935;-75
2022/01/02 00:46:27;;;;;;;;;;;;;;;8.43;100.00;101252.25;5010804;28;982;-74
2022/01/02 00:48:57;;;;;;;;;;;;;;;8.37;100.00;101249.94;5009797;28;1919;-76
2022/01/02 00:51:29;;;;;;;;;;;;;;;8.32;100.00;101249.34;5009615;28;1391;-77
2022/01/02 00:53:58;;;;;;;;;;;;;;;8.25;100.00;101243.44;5011408;28;947;-76
2022/01/02 00:56:27;;;;;;;;;;;;;;;8.26;100.00;101237.09;5009813;28;762;-77
2022/01/02 00:58:58;;;;;;;;;;;;;;;8.23;100.00;101234.59;5009997;28;1014;-76
2022/01/02 01:01:27;;;;;;;;;;;;;;;8.29;100.00;101227.91;5009736;28;1575;-76
2022/01/02 01:03:54;;;;;;;;;;;;;;;8.29;100.00;101226.06;4993457;28;1270;-74
2022/01/02 01:06:23;;;;;;;;;;;;;;;8.33;100.00;101227.59;4993455;28;1192;-76
2022/01/02 01:08:55;;;;;;;;;;;;;;;8.36;100.00;101223.84;5011046;28;1923;-76
2022/01/02 01:11:22;;;;;;;;;;;;;;;8.35;100.00;101220.28;5011239;28;1473;-77
2022/01/02 01:13:49;;;;;;;;;;;;;;;8.33;100.00;101216.78;5013785;28;1022;-74
2022/01/02 01:16:17;;;;;;;;;;;;;;;8.39;100.00;101223.63;5013399;28;995;-78
2022/01/02 01:18:44;;;;;;;;;;;;;;;8.42;100.00;101203.63;4996870;28;980;-77
2022/01/02 01:21:11;;;;;;;;;;;;;;;8.48;100.00;101195.16;5013321;28;1407;-75
2022/01/02 01:23:37;;;;;;;;;;;;;;;8.49;100.00;101186.06;5013173;28;776;-75
2022/01/02 01:26:07;;;;;;;;;;;;;;;8.49;100.00;101183.38;4996396;28;1141;-76
2022/01/02 01:28:33;;;;;;;;;;;;;;;8.48;100.00;101179.78;5012842;28;1986;-75
2022/01/02 01:31:00;;;;;;;;;;;;;;;8.49;100.00;101181.53;5014054;28;1365;-77
2022/01/02 01:33:26;;;;;;;;;;;;;;;8.47;100.00;101178.06;5012951;28;1042;-77
2022/01/02 01:35:52;;;;;;;;;;;;;;;8.44;100.00;101175.50;5012870;28;832;-77
2022/01/02 01:38:19;;;;;;;;;;;;;;;8.41;100.00;101170.31;5012790;28;994;-77
2022/01/02 01:40:49;;;;;;;;;;;;;;;8.38;100.00;101165.97;5012765;28;1329;-75
2022/01/02 01:43:17;;;;;;;;;;;;;;;8.35;100.00;101158.06;5012882;28;911;-76
2022/01/02 01:45:43;;;;;;;;;;;;;;;8.33;100.00;101156.41;5012359;28;1057;-75
2022/01/02 01:48:10;;;;;;;;;;;;;;;8.30;100.00;101149.38;5012398;28;1906;-75
2022/01/02 01:50:39;;;;;;;;;;;;;;;8.29;100.00;101146.75;5012217;28;1324;-77
2022/01/02 01:53:07;;;;;;;;;;;;;;;8.29;100.00;101139.50;5012108;28;995;-77
2022/01/02 01:55:35;;;;;;;;;;;;;;;8.27;100.00;101122.53;5012062;28;1006;-73
2022/01/02 01:58:03;;;;;;;;;;;;;;;8.25;100.00;101119.03;5012192;28;780;-75
2022/01/02 02:00:33;;;;;;;;;;;;;;;8.25;100.00;101126.28;5012098;28;1314;-77
2022/01/02 02:03:02;;;;;;;;;;;;;;;8.21;100.00;101115.66;5012113;28;1050;-79
2022/01/02 02:05:30;;;;;;;;;;;;;;;8.18;100.00;101113.16;4995642;28;1343;-75
2022/01/02 02:07:56;;;;;;;;;;;;;;;8.12;100.00;101108.13;5012064;28;1914;-75
2022/01/02 02:10:29;;;;;;;;;;;;;;;8.05;100.00;101091.44;5029892;23;3631;-74
2022/01/02 02:13:03;;;;;;;;;;;;;;;7.99;100.00;101105.38;5034273;28;1006;-75
2022/01/02 02:15:33;;;;;;;;;;;;;;;7.93;100.00;101119.28;5032325;28;1061;-75
2022/01/02 02:17:59;;;;;;;;;;;;;;;7.90;100.00;101121.28;5034349;28;841;-76
2022/01/02 02:20:29;;;;;;;;;;;;;;;7.85;100.00;101110.78;5036695;28;1448;-74
2022/01/02 02:22:58;;;;;;;;;;;;;;;7.79;100.00;101103.94;5052297;28;1058;-74
2022/01/02 02:25:25;;;;;;;;;;;;;;;7.74;100.00;101108.78;5054348;28;1050;-75
2022/01/02 02:27:53;;;;;;;;;;;;;;;7.69;100.00;101095.53;5051597;28;1906;-74
2022/01/02 02:30:19;;;;;;;;;;;;;;;7.68;100.00;101087.53;5052799;28;1397;-74
2022/01/02 02:32:46;;;;;;;;;;;;;;;7.62;100.00;101066.31;5051844;28;990;-74
2022/01/02 02:35:12;;;;;;;;;;;;;;;7.62;100.00;101066.31;5052431;28;1061;-75
2022/01/02 02:37:42;;;;;;;;;;;;;;;7.60;100.00;101058.28;5055071;28;1042;-75
2022/01/02 02:40:10;;;;;;;;;;;;;;;7.59;100.00;101047.59;5053296;28;1430;-73
2022/01/02 02:42:45;;;;;;;;;;;;;;;7.58;100.00;101051.28;5052656;28;950;-75
2022/01/02 02:50:37;;;;;;;;;;;;;;;7.54;100.00;101062.25;5052168;28;1305;-73
2022/01/02 02:53:05;;;;;;;;;;;;;;;7.55;100.00;101052.34;5034303;28;1164;-74
2022/01/02 02:55:33;;;;;;;;;;;;;;;7.53;100.00;101041.59;5052566;28;1009;-74
2022/01/02 02:58:26;;;;;;;;;;;;;;;7.53;100.00;101040.75;5051204;28;958;-75
2022/01/02 03:00:48;;;;;;;;;;;;;;;7.53;100.00;101029.94;5050713;28;1314;-75
2022/01/02 03:03:15;;;;;;;;;;;;;;;7.54;100.00;101020.88;5051893;28;1182;-74
2022/01/02 03:05:41;;;;;;;;;;;;;;;7.56;100.00;101023.47;5034835;28;1188;-74
2022/01/02 03:08:09;;;;;;;;;;;;;;;7.57;100.00;101017.13;5050325;28;1975;-74
2022/01/02 03:10:36;;;;;;;;;;;;;;;7.55;100.00;101003.72;5050803;28;1535;-73
2022/01/02 03:13:02;;;;;;;;;;;;;;;7.52;100.00;101007.47;5052403;28;930;-75
2022/01/02 03:15:28;;;;;;;;;;;;;;;7.51;100.00;100992.22;5052282;28;990;-75
2022/01/02 03:17:55;;;;;;;;;;;;;;;7.50;100.00;100987.78;5052245;28;990;-76
2022/01/02 03:20:21;;;;;;;;;;;;;;;7.53;100.00;100994.81;5036986;28;1392;-75
2022/01/02 03:22:47;;;;;;;;;;;;;;;7.52;100.00;101002.06;5051854;28;1046;-75
2022/01/02 03:25:17;;;;;;;;;;;;;;;7.52;100.00;100993.06;5050631;28;1018;-75
2022/01/02 03:27:44;;;;;;;;;;;;;;;7.53;100.00;100986.72;5049832;28;1989;-74
2022/01/02 03:30:13;;;;;;;;;;;;;;;7.52;100.00;100983.16;5050397;28;1301;-75
2022/01/02 03:32:40;;;;;;;;;;;;;;;7.51;100.00;100983.25;5050224;28;871;-75
2022/01/02 03:35:08;;;;;;;;;;;;;;;7.51;100.00;100978.72;5050193;28;1212;-75
2022/01/02 03:37:34;;;;;;;;;;;;;;;7.51;100.00;100977.88;5054804;28;1033;-75
2022/01/02 03:40:00;;;;;;;;;;;;;;;7.51;100.00;100977.88;5056183;28;1108;-74
2022/01/02 03:42:28;;;;;;;;;;;;;;;7.49;100.00;100974.38;5052434;28;1334;-74
2022/01/02 03:44:57;;;;;;;;;;;;;;;7.47;100.00;100970.91;5050567;28;1407;-76
2022/01/02 03:47:24;;;;;;;;;;;;;;;7.47;100.00;100973.59;5050804;28;1252;-74
2022/01/02 03:49:50;;;;;;;;;;;;;;;7.46;100.00;100961.94;5050574;28;1987;-76
2022/01/02 03:52:16;;;;;;;;;;;;;;;7.46;100.00;100958.38;5051112;28;1397;-76
2022/01/02 03:54:43;;;;;;;;;;;;;;;7.46;100.00;100950.28;5050849;28;1054;-77
2022/01/02 03:57:09;;;;;;;;;;;;;;;7.46;100.00;100936.78;5050550;28;1046;-76
2022/01/02 03:59:37;;;;;;;;;;;;;;;7.48;100.00;100924.91;5051766;28;899;-76
2022/01/02 04:02:03;;;;;;;;;;;;;;;7.48;100.00;100919.50;5051922;28;1365;-76
2022/01/02 04:04:31;;;;;;;;;;;;;;;7.48;100.00;100926.72;5045838;28;1952;-76
2022/01/02 04:06:57;;;;;;;;;;;;;;;7.49;100.00;100931.16;5046065;28;1995;-74
2022/01/02 04:09:23;;;;;;;;;;;;;;;7.48;100.00;100922.19;5049556;28;1981;-74
2022/01/02 04:11:49;;;;;;;;;;;;;;;7.48;100.00;100916.78;5049507;28;1318;-73
2022/01/02 04:14:16;;;;;;;;;;;;;;;7.48;100.00;100913.22;5050464;28;1061;-75
2022/01/02 04:16:44;;;;;;;;;;;;;;;7.50;100.00;100920.25;5050689;28;1150;-76
2022/01/02 04:19:10;;;;;;;;;;;;;;;7.50;100.00;100917.53;5052101;28;997;-74
2022/01/02 04:21:36;;;;;;;;;;;;;;;7.48;100.00;100916.78;5033177;28;1338;-76
2022/01/02 04:24:03;;;;;;;;;;;;;;;7.47;100.00;100925.88;5034217;28;1179;-75
2022/01/02 04:26:30;;;;;;;;;;;;;;;7.45;100.00;100919.69;5050369;28;1038;-76
2022/01/02 04:28:57;;;;;;;;;;;;;;;7.44;100.00;100946.78;5050182;28;1979;-76
2022/01/02 04:31:23;;;;;;;;;;;;;;;7.41;100.00;100939.75;5050519;28;1293;-76
2022/01/02 04:33:51;;;;;;;;;;;;;;;7.39;100.00;100947.09;5050940;28;1280;-76
2022/01/02 04:36:17;;;;;;;;;;;;;;;7.37;100.00;100936.38;5050454;28;915;-75
2022/01/02 04:38:45;;;;;;;;;;;;;;;7.36;100.00;100949.97;5051142;28;990;-76
2022/01/02 04:41:12;;;;;;;;;;;;;;;7.32;100.00;100938.53;5050508;28;1360;-76
2022/01/02 04:43:38;;;;;;;;;;;;;;;7.28;100.00;100933.41;5052017;28;787;-75
2022/01/02 04:46:06;;;;;;;;;;;;;;;7.23;100.00;100938.22;5033787;28;944;-73
2022/01/02 04:48:32;;;;;;;;;;;;;;;7.18;100.00;100930.44;5053556;28;1973;-74
2022/01/02 04:51:02;;;;;;;;;;;;;;;7.13;100.00;100928.00;5053442;28;1407;-73
2022/01/02 04:53:30;;;;;;;;;;;;;;;7.07;100.00;100919.44;5054102;28;1180;-74
2022/01/02 04:55:56;;;;;;;;;;;;;;;7.02;100.00;100927.84;5053192;28;974;-75
2022/01/02 04:58:23;;;;;;;;;;;;;;;6.99;100.00;100928.03;5036702;28;1243;-74
2022/01/02 05:00:49;;;;;;;;;;;;;;;6.97;100.00;100920.00;5053192;28;1420;-74
2022/01/02 05:03:15;;;;;;;;;;;;;;;7.01;100.00;100926.94;5052980;28;999;-74
2022/01/02 05:05:42;;;;;;;;;;;;;;;7.01;100.00;100928.78;5052642;28;1058;-74
2022/01/02 05:08:11;;;;;;;;;;;;;;;7.02;100.00;100925.13;5052811;28;1918;-73
2022/01/02 05:10:39;;;;;;;;;;;;;;;7.03;100.00;100919.63;5053011;28;1328;-74
2022/01/02 05:13:05;;;;;;;;;;;;;;;7.06;100.00;100909.63;5053271;28;986;-74
2022/01/02 05:15:31;;;;;;;;;;;;;;;7.03;100.00;100906.16;5052798;28;1054;-74
2022/01/02 05:17:58;;;;;;;;;;;;;;;6.97;100.00;100903.81;5052344;28;1512;-74
2022/01/02 05:20:24;;;;;;;;;;;;;;;6.94;100.00;100895.94;5035998;28;1336;-75
2022/01/02 05:22:50;;;;;;;;;;;;;;;6.90;100.00;100890.84;5052631;28;994;-73
2022/01/02 05:25:18;;;;;;;;;;;;;;;6.84;100.00;100898.34;5052832;28;1057;-72
2022/01/02 05:27:45;;;;;;;;;;;;;;;6.81;100.00;100886.88;5054089;28;990;-73
2022/01/02 05:30:11;;;;;;;;;;;;;;;6.77;100.00;100888.88;5052944;28;1980;-74
2022/01/02 05:32:38;;;;;;;;;;;;;;;6.76;100.00;100879.09;5053590;28;1034;-74
2022/01/02 05:35:05;;;;;;;;;;;;;;;6.75;100.00;100871.06;5053148;28;990;-74
2022/01/02 05:37:32;;;;;;;;;;;;;;;6.73;100.00;100857.66;5053736;28;1025;-74
2022/01/02 05:39:58;;;;;;;;;;;;;;;6.73;100.00;100846.03;5053948;28;749;-74
2022/01/02 05:42:25;;;;;;;;;;;;;;;6.74;100.00;100839.66;5053476;28;1407;-75
2022/01/02 05:44:52;;;;;;;;;;;;;;;6.75;100.00;100836.88;5053505;28;1054;-74
2022/01/02 05:47:18;;;;;;;;;;;;;;;6.75;100.00;100838.69;5052825;28;939;-74
2022/01/02 05:49:45;;;;;;;;;;;;;;;6.72;100.00;100839.78;5053575;28;1914;-73
2022/01/02 05:52:12;;;;;;;;;;;;;;;6.71;100.00;100838.03;5035669;28;1327;-74
2022/01/02 05:54:38;;;;;;;;;;;;;;;6.68;100.00;100833.69;5052006;28;1010;-73
2022/01/02 05:57:05;;;;;;;;;;;;;;;6.65;100.00;100838.41;5052270;28;824;-74
2022/01/02 05:59:35;;;;;;;;;;;;;;;6.64;100.00;100842.94;5052955;28;852;-75
2022/01/02 06:02:01;;;;;;;;;;;;;;;6.62;100.00;100833.22;5052949;28;1458;-75
2022/01/02 06:04:28;;;;;;;;;;;;;;;6.60;100.00;100827.94;5052543;28;798;-76
2022/01/02 06:06:55;;;;;;;;;;;;;;;6.57;100.00;100836.19;5054249;28;1058;-72
2022/01/02 06:09:21;;;;;;;;;;;;;;;6.63;100.00;100834.97;5050924;28;1977;-73
2022/01/02 06:11:47;;;;;;;;;;;;;;;6.65;100.00;100827.63;5034755;28;1559;-73
2022/01/02 06:14:17;;;;;;;;;;;;;;;6.65;100.00;100814.97;5054137;28;1057;-73
2022/01/02 06:16:44;;;;;;;;;;;;;;;6.64;100.00;100815.09;5057261;28;1514;-73
2022/01/02 06:19:11;;;;;;;;;;;;;;;6.66;100.00;100802.38;5051433;28;1564;-71
2022/01/02 06:21:37;;;;;;;;;;;;;;;6.67;100.00;100804.97;5051343;28;1360;-73
2022/01/02 06:24:04;;;;;;;;;;;;;;;6.67;100.00;100799.59;5058284;28;1575;-73
2022/01/02 06:26:30;;;;;;;;;;;;;;;6.71;100.00;100797.56;5070785;28;1045;-73
2022/01/02 06:28:57;;;;;;;;;;;;;;;6.74;100.00;100801.91;5069031;28;1973;-72
2022/01/02 06:31:23;;;;;;;;;;;;;;;6.76;100.00;100798.16;5070638;28;1542;-72
2022/01/02 06:33:51;;;;;;;;;;;;;;;6.76;100.00;100781.97;5067496;28;1549;-74
2022/01/02 06:36:18;;;;;;;;;;;;;;;6.75;100.00;100796.41;5050659;28;946;-72
2022/01/02 06:38:44;;;;;;;;;;;;;;;6.75;100.00;100798.22;5051328;28;1478;-72
2022/01/02 06:41:11;;;;;;;;;;;;;;;6.76;100.00;100798.16;5050885;28;1324;-74
2022/01/02 06:43:38;;;;;;;;;;;;;;;6.75;100.00;100792.81;5047354;28;1554;-71
2022/01/02 06:46:05;;;;;;;;;;;;;;;6.76;100.00;100794.56;5052611;28;1324;-74
2022/01/02 06:48:32;;;;;;;;;;;;;;;6.75;100.00;100796.41;5070166;28;1525;-75
2022/01/02 06:51:00;;;;;;;;;;;;;;;6.77;100.00;100802.56;5054445;28;1354;-73
2022/01/02 06:53:26;;;;;;;;;;;;;;;6.77;100.00;100793.59;5070184;28;1014;-74
2022/01/02 06:55:52;;;;;;;;;;;;;;;6.78;100.00;100790.78;5031302;28;1506;-73
2022/01/02 06:58:19;;;;;;;;;;;;;;;6.79;100.00;100779.06;5030722;28;738;-73
2022/01/02 07:00:45;;;;;;;;;;;;;;;6.80;100.00;100780.78;5048742;28;1550;-74
2022/01/02 07:03:11;;;;;;;;;;;;;;;6.82;100.00;100788.78;5069701;28;1509;-75
2022/01/02 07:05:39;;;;;;;;;;;;;;;6.85;100.00;100802.06;5054629;28;1529;-73
2022/01/02 07:08:07;;;;;;;;;;;;;;;6.92;100.00;100791.75;5048478;28;1552;-74
2022/01/02 07:10:35;;;;;;;;;;;;;;;6.92;100.00;100753.97;5032152;28;1918;-73
2022/01/02 07:13:01;;;;;;;;;;;;;;;6.93;100.00;100744.91;5063436;28;1444;-73
2022/01/02 07:15:27;;;;;;;;;;;;;;;6.95;100.00;100751.03;5050867;28;1564;-74
2022/01/02 07:17:54;;;;;;;;;;;;;;;6.94;100.00;100746.63;5070289;28;1560;-73
2022/01/02 07:20:20;;;;;;;;;;;;;;;6.93;100.00;100744.91;5069822;28;1337;-74
2022/01/02 07:22:47;;;;;;;;;;;;;;;6.95;100.00;100753.75;5056651;28;1560;-74
2022/01/02 07:25:14;;;;;;;;;;;;;;;6.94;100.00;100755.59;5063112;28;1496;-73
2022/01/02 07:27:41;;;;;;;;;;;;;;;6.99;100.00;100756.16;5070576;28;843;-74
2022/01/02 07:30:08;;;;;;;;;;;;;;;7.02;100.00;100749.69;5059363;28;1979;-74
2022/01/02 07:32:35;;;;;;;;;;;;;;;7.06;100.00;100759.31;5050530;28;1006;-74
2022/01/02 07:35:03;;;;;;;;;;;;;;;7.10;100.00;100768.94;5067852;28;1655;-74
2022/01/02 07:37:30;;;;;;;;;;;;;;;7.15;100.00;100776.75;5070392;28;757;-75
2022/01/02 07:39:56;;;;;;;;;;;;;;;7.15;100.00;100761.41;5056838;28;1584;-74
2022/01/02 07:42:23;;;;;;;;;;;;;;;7.19;100.00;100764.78;5049325;28;1294;-74
2022/01/02 07:44:56;;;;;;;;;;;;;;;7.17;100.00;100756.75;5067061;28;1462;-74
2022/01/02 07:47:22;;;;;;;;;;;;;;;7.19;100.00;100767.47;5066633;28;1516;-73
2022/01/02 07:49:49;;;;;;;;;;;;;;;7.15;100.00;100745.22;5070488;28;1914;-75
2022/01/02 07:52:15;;;;;;;;;;;;;;;7.16;100.00;100755.06;5063474;28;1489;-74
2022/01/02 07:54:41;;;;;;;;;;;;;;;7.14;100.00;100750.72;5060040;28;1334;-72
2022/01/02 07:57:08;;;;;;;;;;;;;;;7.12;100.00;100753.53;5051219;28;1492;-74
2022/01/02 07:59:35;;;;;;;;;;;;;;;7.12;100.00;100756.22;5069008;28;1524;-74
2022/01/02 08:02:01;;;;;;;;;;;;;;;7.16;100.00;100763.16;5070248;28;1352;-73
2022/01/02 08:04:28;;;;;;;;;;;;;;;7.18;100.00;100750.41;5067254;28;1506;-74
2022/01/02 08:06:54;;;;;;;;;;;;;;;7.23;100.00;100746.53;5070037;28;847;-74
2022/01/02 08:09:20;;;;;;;;;;;;;;;7.27;100.00;100742.66;5070466;28;1977;-73
2022/01/02 08:11:46;;;;;;;;;;;;;;;7.31;100.00;100738.78;5073176;22;4241;-76
2022/01/02 08:14:15;;;;;;;;;;;;;;;7.35;100.00;100732.22;5028435;28;2424;-76
2022/01/02 08:16:43;;;;;;;;;;;;;;;7.38;100.00;100729.31;5028195;28;1266;-76
2022/01/02 08:19:09;;;;;;;;;;;;;;;7.42;100.00;100721.88;5029420;28;1678;-74
2022/01/02 08:21:35;;;;;;;;;;;;;;;7.44;100.00;100731.59;5033944;28;1458;-74
2022/01/02 08:24:02;;;;;;;;;;;;;;;7.48;100.00;100727.72;5017075;28;1561;-74
2022/01/02 08:26:28;;;;;;;;;;;;;;;7.54;100.00;100726.41;5015164;28;1285;-75
2022/01/02 08:28:54;;;;;;;;;;;;;;;7.58;100.00;100730.66;5015115;28;816;-76
2022/01/02 08:31:20;;;;;;;;;;;;;;;7.64;100.00;100721.25;5013281;28;2008;-73
2022/01/02 08:33:48;;;;;;;;;;;;;;;7.66;100.00;100725.56;5014703;28;779;-76
2022/01/02 08:36:15;;;;;;;;;;;;;;;7.73;100.00;100717.06;5031433;28;1639;-77
2022/01/02 08:38:41;;;;;;;;;;;;;;;7.77;100.00;100721.28;5034458;28;895;-75
2022/01/02 08:41:07;;;;;;;;;;;;;;;7.78;100.00;100723.84;5033980;28;955;-75
2022/01/02 08:43:34;;;;;;;;;;;;;;;7.81;100.00;100715.53;5034148;28;1444;-76
2022/01/02 08:46:01;;;;;;;;;;;;;;;7.82;100.00;100714.56;5018789;28;1525;-77
2022/01/02 08:48:27;;;;;;;;;;;;;;;7.83;100.00;100705.50;5025614;28;1545;-75
2022/01/02 08:50:55;;;;;;;;;;;;;;;7.86;100.00;100707.13;5034183;28;1914;-75
2022/01/02 08:53:21;;;;;;;;;;;;;;;7.88;100.00;100700.63;5031243;28;1543;-76
2022/01/02 08:55:47;;;;;;;;;;;;;;;7.92;100.00;100701.25;5031917;28;1537;-76
2022/01/02 08:58:13;;;;;;;;;;;;;;;7.95;100.00;100695.66;5031879;28;982;-77
2022/01/02 09:00:40;;;;;;;;;;;;;;;8.00;100.00;100689.91;5032385;28;911;-77
2022/01/02 09:03:06;;;;;;;;;;;;;;;8.08;100.00;100692.94;5030994;28;1365;-77
2022/01/02 09:05:33;;;;;;;;;;;;;;;8.18;100.00;100691.31;5032226;28;864;-76
2022/01/02 09:08:00;;;;;;;;;;;;;;;8.31;100.00;100677.78;5032294;28;667;-77
2022/01/02 09:10:26;;;;;;;;;;;;;;;8.46;100.00;100680.38;5031240;28;2008;-76
2022/01/02 09:12:53;;;;;;;;;;;;;;;8.59;100.00;100674.91;5030913;28;1381;-76
2022/01/02 09:15:19;;;;;;;;;;;;;;;8.67;100.00;100658.97;5033704;28;757;-78
2022/01/02 09:17:46;;;;;;;;;;;;;;;8.78;100.00;100671.69;5013049;28;1500;-77
2022/01/02 09:20:14;;;;;;;;;;;;;;;8.89;100.00;100663.66;5014029;28;753;-77
2022/01/02 09:22:41;;;;;;;;;;;;;;;9.03;100.00;100673.44;5014678;28;1399;-73
2022/01/02 09:25:09;;;;;;;;;;;;;;;9.18;100.00;100668.72;5014448;28;979;-73
2022/01/02 09:27:35;;;;;;;;;;;;;;;9.31;100.00;100663.19;5013779;28;1042;-77
2022/01/02 09:30:02;;;;;;;;;;;;;;;9.42;100.00;100660.53;5013977;28;1914;-77
2022/01/02 09:32:29;;;;;;;;;;;;;;;9.52;100.00;100647.97;5013184;28;1403;-76
2022/01/02 09:34:55;;;;;;;;;;;;;;;9.57;100.00;100652.19;4996057;28;1252;-76
2022/01/02 09:37:21;;;;;;;;;;;;;;;9.64;100.00;100642.59;5013503;28;1200;-76
2022/01/02 09:39:48;;;;;;;;;;;;;;;9.70;100.00;100642.09;5013848;28;1247;-75
2022/01/02 09:42:15;;;;;;;;;;;;;;;9.76;100.00;100643.47;5012404;28;1320;-77
2022/01/02 09:44:42;;;;;;;;;;;;;;;9.74;100.00;100632.75;5013773;28;1027;-76
2022/01/02 09:47:09;;;;;;;;;;;;;;;9.76;100.00;100629.94;5012119;28;1160;-77
2022/01/02 09:49:37;;;;;;;;;;;;;;;9.76;100.00;100627.22;5012217;28;1981;-77
2022/01/02 09:52:03;;;;;;;;;;;;;;;9.74;100.00;100634.59;5013431;28;1423;-77
2022/01/02 09:54:32;;;;;;;;;;;;;;;9.72;100.00;100623.88;5013790;28;887;-76
2022/01/02 09:56:58;;;;;;;;;;;;;;;9.72;100.00;100618.47;5012279;28;841;-76
2022/01/02 09:59:26;;;;;;;;;;;;;;;9.77;100.00;100623.50;5012296;28;1201;-76
2022/01/02 10:01:53;;;;;;;;;;;;;;;9.79;100.00;100614.25;5012459;28;1400;-78
2022/01/02 10:04:32;;;;;;;;;;;;;;;9.82;100.00;100616.75;5013616;28;1148;-75
2022/01/02 10:06:58;;;;;;;;;;;;;;;9.89;100.00;100615.25;5011764;28;931;-77
2022/01/02 10:09:30;;;;;;;;;;;;;;;9.97;100.00;100606.50;5009688;28;1968;-77
2022/01/02 10:12:17;;;;;;;;;;;;;;;10.02;100.00;100603.41;5012689;28;1918;-77
2022/01/02 10:14:45;;;;;;;;;;;;;;;10.08;100.00;100608.34;5005106;28;1253;-77
2022/01/02 10:17:11;;;;;;;;;;;;;;;10.11;100.00;100610.81;5011728;28;1541;-77
2022/01/02 10:19:40;;;;;;;;;;;;;;;10.18;100.00;100603.91;5013228;28;820;-77
2022/01/02 10:22:07;;;;;;;;;;;;;;;10.23;100.00;100589.97;5011940;28;1332;-78
2022/01/02 10:24:36;;;;;;;;;;;;;;;10.25;100.00;100588.00;5013400;28;1054;-78
2022/01/02 10:27:09;;;;;;;;;;;;;;;10.29;100.00;100585.88;5014783;28;785;-77
2022/01/02 10:29:39;;;;;;;;;;;;;;;10.34;100.00;100573.69;5012931;28;1447;-78
2022/01/02 10:32:22;;;;;;;;;;;;;;;10.40;100.00;100560.63;5011327;28;1973;-77
2022/01/02 10:34:49;;;;;;;;;;;;;;;10.50;100.00;100554.31;5004039;28;1712;-76
2022/01/02 10:37:22;;;;;;;;;;;;;;;10.54;100.00;100544.91;5011367;28;1027;-77
2022/01/02 10:39:48;;;;;;;;;;;;;;;10.58;100.00;100540.06;5031366;28;1609;-76
2022/01/02 10:42:16;;;;;;;;;;;;;;;10.59;100.00;100535.50;5032341;28;1301;-76
2022/01/02 10:44:42;;;;;;;;;;;;;;;10.57;100.00;100534.78;5030517;28;1057;-78
2022/01/02 10:47:13;;;;;;;;;;;;;;;10.54;100.00;100525.91;5031910;28;986;-77
2022/01/02 10:49:53;;;;;;;;;;;;;;;10.52;100.00;100524.31;5032362;28;769;-76
2022/01/02 10:52:20;;;;;;;;;;;;;;;10.53;100.00;100515.19;5030833;28;1530;-76
2022/01/02 10:54:46;;;;;;;;;;;;;;;10.52;100.00;100513.47;5013018;28;1335;-76
2022/01/02 10:57:13;;;;;;;;;;;;;;;10.49;100.00;100510.97;5016231;28;1482;-77
2022/01/02 10:59:40;;;;;;;;;;;;;;;10.45;100.00;100514.94;5012270;28;1102;-76
2022/01/02 11:02:08;;;;;;;;;;;;;;;10.42;100.00;100512.50;4995181;28;1476;-75
2022/01/02 11:04:37;;;;;;;;;;;;;;;10.35;100.00;100498.59;5011454;28;1475;-76
2022/01/02 11:07:06;;;;;;;;;;;;;;;10.32;100.00;100501.53;5012008;28;856;-76
2022/01/02 11:09:33;;;;;;;;;;;;;;;10.27;100.00;100501.06;5011555;28;767;-77
2022/01/02 11:11:59;;;;;;;;;;;;;;;10.24;100.00;100501.31;5011113;28;1915;-78
2022/01/02 11:14:26;;;;;;;;;;;;;;;10.19;100.00;100497.13;5012634;28;1098;-77
2022/01/02 11:16:52;;;;;;;;;;;;;;;10.15;100.00;100489.38;5014366;28;1552;-75
2022/01/02 11:19:19;;;;;;;;;;;;;;;10.10;100.00;100480.75;5012147;28;1429;-75
2022/01/02 11:21:48;;;;;;;;;;;;;;;10.07;100.00;100471.03;5011744;28;1287;-76
2022/01/02 11:24:19;;;;;;;;;;;;;;;10.04;100.00;100472.13;5011227;28;998;-77
2022/01/02 11:26:53;;;;;;;;;;;;;;;10.03;100.00;100453.28;5011465;28;907;-77
2022/01/02 11:29:25;;;;;;;;;;;;;;;10.02;100.00;100435.28;5012851;28;1517;-77
2022/01/02 11:31:51;;;;;;;;;;;;;;;10.00;100.00;100437.28;5011697;28;1923;-76
2022/01/02 11:34:21;;;;;;;;;;;;;;;9.96;100.00;100431.25;5010783;28;951;-76
2022/01/02 11:36:49;;;;;;;;;;;;;;;9.92;100.00;100442.47;5010095;28;829;-76
2022/01/02 11:39:16;;;;;;;;;;;;;;;9.87;100.00;100430.19;5011786;28;877;-78
2022/01/02 11:41:43;;;;;;;;;;;;;;;9.85;100.00;100423.16;5012657;28;1526;-76
2022/01/02 11:44:10;;;;;;;;;;;;;;;9.82;100.00;100426.09;5011706;28;1007;-78
2022/01/02 11:46:40;;;;;;;;;;;;;;;9.78;100.00;100427.34;5010994;28;721;-76
2022/01/02 11:49:14;;;;;;;;;;;;;;;9.71;100.00;100405.31;5016667;28;1518;-78
2022/01/02 11:51:55;;;;;;;;;;;;;;;9.67;100.00;100384.88;5018406;28;1906;-77
2022/01/02 11:54:40;;;;;;;;;;;;;;;9.61;100.00;100382.69;5009260;28;1502;-77
2022/01/02 11:57:22;;;;;;;;;;;;;;;9.55;100.00;100379.50;5011043;28;1058;-78
2022/01/02 11:59:58;;;;;;;;;;;;;;;9.50;100.00;100373.59;5011260;28;1353;-76
2022/01/02 12:02:34;;;;;;;;;;;;;;;9.46;100.00;100369.41;4993300;28;1299;-79
2022/01/02 12:05:12;;;;;;;;;;;;;;;9.44;100.00;100363.25;5010118;28;817;-75
2022/01/02 12:07:53;;;;;;;;;;;;;;;9.44;100.00;100370.53;5007219;28;1235;-75
2022/01/02 12:10:21;;;;;;;;;;;;;;;9.44;100.00;100365.09;5018004;28;1930;-77
2022/01/02 12:13:06;;;;;;;;;;;;;;;9.42;100.00;100372.47;5024929;28;1597;-78
2022/01/02 12:16:05;;;;;;;;;;;;;;;9.40;100.00;100369.91;5029546;28;895;-77
2022/01/02 12:18:34;;;;;;;;;;;;;;;9.36;100.00;100374.69;5030769;28;996;-78
2022/01/02 12:21:10;;;;;;;;;;;;;;;9.36;100.00;100376.56;5029482;28;1458;-78
2022/01/02 12:23:56;;;;;;;;;;;;;;;9.36;100.00;100381.97;5029508;28;1588;-76
2022/01/02 12:26:26;;;;;;;;;;;;;;;9.33;100.00;100360.56;4991352;28;999;-78
2022/01/02 12:28:56;;;;;;;;;;;;;;;9.33;100.00;100355.16;4990975;28;892;-78
2022/01/02 12:31:26;;;;;;;;;;;;;;;9.31;100.00;100343.56;5011886;28;1910;-75
2022/01/02 12:33:54;;;;;;;;;;;;;;;9.29;100.00;100327.44;5014204;28;1422;-77
2022/01/02 12:36:20;;;;;;;;;;;;;;;9.28;100.00;100319.44;5010526;28;1537;-77
2022/01/02 12:38:47;;;;;;;;;;;;;;;9.26;100.00;100319.59;4994839;28;1514;-77
2022/01/02 12:41:14;;;;;;;;;;;;;;;9.24;100.00;100304.44;5009474;28;1354;-77
2022/01/02 12:43:41;;;;;;;;;;;;;;;9.24;100.00;100299.88;5010771;28;1165;-78
2022/01/02 12:46:07;;;;;;;;;;;;;;;9.25;100.00;100301.59;5011225;28;675;-78
2022/01/02 12:48:35;;;;;;;;;;;;;;;9.25;100.00;100289.91;5018800;28;1171;-75
2022/01/02 12:51:08;;;;;;;;;;;;;;;9.26;100.00;100278.06;5029210;28;1918;-78
2022/01/02 12:53:34;;;;;;;;;;;;;;;9.26;100.00;100272.66;5030266;28;1412;-75
2022/01/02 12:56:01;;;;;;;;;;;;;;;9.25;100.00;100263.69;5030465;28;962;-77
2022/01/02 12:58:27;;;;;;;;;;;;;;;9.26;100.00;100264.53;5030572;28;979;-78